الصفحة الرئيسية
METAR-TAF:

METAR-TAF

مطار :

Wanaham

Lifou, نيو كاليدونيا

دائرة عرض: 20-46S, خط طول: 167-14E, ارتفاع: 28 متر

METAR: مفقودة

زمن: 04:50 (17:50 UTC)

توقعات

تاريخ ووقت الإصدار 6ساعات و 50 دقيقة قبل الساعة 11:00UTC
التوقعات صالحة من05 الساعة 12 UTC إلى 06 الساعة 12 UTC
ريح 8 عقدة من الشرق/الجنوب الشرقي
الرؤية 10 كم أو أكثر
غيوم قليلة على ارتفاع 3500 قدم

TAF: NWWL 051100Z 0512/0612 12008KT 9999 FEW035

أرصاد الطقس والتوقعات من أكثر من 4000 مطار (تقارير الطقس للمطار METAR والتنبؤ بالطقس بالمطارTAF).

المحطات المتاحة هي النقط الصفراء والحمراء على الخريطة.

حرك المؤشر فوق النقطة لمعرفة اسم المحطة.

ثم انقر لمعرفة أرصاد وتوقعات الطقس.

لتغيير الخارطة: اضغط على الأزرار الخضراء مع رمز الصليب الأسود للتكبير. على الزر الأخضر مع شرطة للتصغير، أو على الأسهم الخضراء للخرائط المجاورة.


METAR-TAF: